Wetterdaten: Woche 23.10.23 - 29.10.23 (KW43)
Datum Zeit Temp. Aussen Temp. o. S. Temp +5cm Feuchte Auss Luftdruck Regen Sonnenschein Regendauer Solar Windben Empfang
23.10.2023 00:00 11,4 C 10,6 C 7,4 C 96 % 1013,0 hPa 0,0 l/m 0,00 h 0,00 h 0 W/m 3,3 km/h (1 Bft) 98,31 %
23.10.2023 01:00 10,8 C 9,5 C 6,7 C 96 % 1013,3 hPa 0,0 l/m 0,00 h 0,00 h 0 W/m 0,5 km/h (0 Bft) 98,42 %
23.10.2023 02:00 9,8 C 8,2 C 5,7 C 96 % 1013,6 hPa 0,0 l/m 0,00 h 0,00 h 0 W/m 0,1 km/h (0 Bft) 92,43 %
23.10.2023 03:00 9,0 C 7,8 C 5,0 C 96 % 1013,7 hPa 0,0 l/m 0,00 h 0,00 h 0 W/m 0,0 km/h (0 Bft) 97,41 %
23.10.2023 04:00 8,5 C 7,3 C 4,8 C 96 % 1013,9 hPa 0,0 l/m 0,00 h 0,00 h 0 W/m 0,1 km/h (0 Bft) 97,88 %
23.10.2023 05:00 8,2 C 7,3 C 4,7 C 96 % 1014,0 hPa 0,0 l/m 0,00 h 0,00 h 0 W/m 0,4 km/h (0 Bft) 98,28 %
23.10.2023 06:00 8,1 C 7,5 C 4,8 C 97 % 1014,2 hPa 0,0 l/m 0,00 h 0,00 h 0 W/m 1,3 km/h (1 Bft) 95,98 %
23.10.2023 07:00 8,3 C 7,6 C 5,1 C 97 % 1014,1 hPa 0,0 l/m 0,00 h 0,00 h 0 W/m 1,1 km/h (1 Bft) 96,34 %
23.10.2023 08:00 8,0 C 7,3 C 4,8 C 98 % 1014,2 hPa 0,0 l/m 0,00 h 0,00 h 13 W/m 1,0 km/h (0 Bft) 97,86 %
23.10.2023 09:00 8,5 C 8,5 C 5,7 C 98 % 1014,4 hPa 0,0 l/m 0,00 h 0,00 h 38 W/m 2,7 km/h (1 Bft) 97,22 %
23.10.2023 10:00 10,0 C 10,4 C 7,1 C 99 % 1014,2 hPa 0,0 l/m 0,00 h 0,00 h 95 W/m 6,6 km/h (2 Bft) 98,05 %
23.10.2023 11:00 11,1 C 12,9 C 8,4 C 99 % 1013,9 hPa 0,0 l/m 0,07 h 0,00 h 163 W/m 4,6 km/h (1 Bft) 96,96 %
23.10.2023 12:00 12,2 C 12,9 C 9,2 C 97 % 1013,4 hPa 0,0 l/m 0,00 h 0,00 h 186 W/m 6,2 km/h (2 Bft) 96,84 %
23.10.2023 13:00 12,3 C 12,2 C 8,9 C 93 % 1012,8 hPa 0,0 l/m 0,00 h 0,00 h 162 W/m 9,3 km/h (2 Bft) 98,21 %
23.10.2023 14:00 12,7 C 12,9 C 9,2 C 91 % 1011,9 hPa 0,0 l/m 0,00 h 0,00 h 175 W/m 7,0 km/h (2 Bft) 96,78 %
23.10.2023 15:00 13,8 C 14,3 C 10,2 C 88 % 1010,7 hPa 0,0 l/m 0,73 h 0,00 h 223 W/m 7,4 km/h (2 Bft) 97,28 %
23.10.2023 16:00 14,2 C 13,6 C 9,9 C 84 % 1009,5 hPa 0,0 l/m 0,00 h 0,00 h 67 W/m 8,0 km/h (2 Bft) 99,18 %
23.10.2023 17:00 13,5 C 12,6 C 9,2 C 86 % 1008,5 hPa 0,0 l/m 0,00 h 0,00 h 15 W/m 5,9 km/h (2 Bft) 93,98 %
23.10.2023 18:00 13,0 C 11,6 C 7,9 C 89 % 1008,7 hPa 1,6 l/m 0,00 h 1,00 h 0 W/m 3,2 km/h (1 Bft) 98,40 %
23.10.2023 19:00 12,0 C 10,8 C 7,2 C 94 % 1007,5 hPa 0,6 l/m 0,00 h 0,47 h 0 W/m 4,4 km/h (1 Bft) 96,28 %
23.10.2023 20:00 11,7 C 10,9 C 7,2 C 96 % 1006,8 hPa 0,0 l/m 0,00 h 0,00 h 0 W/m 1,3 km/h (1 Bft) 96,65 %
23.10.2023 21:00 11,7 C 11,2 C 7,5 C 97 % 1006,2 hPa 0,2 l/m 0,00 h 0,30 h 0 W/m 0,0 km/h (0 Bft) 98,38 %
23.10.2023 22:00 11,8 C 11,1 C 7,8 C 98 % 1005,7 hPa 1,2 l/m 0,00 h 0,57 h 0 W/m 0,4 km/h (0 Bft) 96,65 %
23.10.2023 23:00 11,7 C 11,1 C 7,8 C 98 % 1004,7 hPa 0,6 l/m 0,00 h 0,23 h 0 W/m 3,1 km/h (1 Bft) 98,42 %
24.10.2023 20:00 11,1 C 10,4 C 6,8 C 95 % 1003,5 hPa 0,2 l/m 0,00 h 0,00 h 0 W/m 0,0 km/h (0 Bft) 98,52 %
24.10.2023 21:00 11,1 C 10,6 C 7,0 C 95 % 1003,5 hPa 0,0 l/m 0,00 h 0,00 h 0 W/m 0,0 km/h (0 Bft) 95,96 %
24.10.2023 22:00 10,9 C 10,0 C 7,0 C 95 % 1003,5 hPa 0,0 l/m 0,00 h 0,00 h 0 W/m 2,2 km/h (1 Bft) 97,31 %
24.10.2023 23:00 10,4 C 9,8 C 6,6 C 94 % 1003,5 hPa 0,0 l/m 0,00 h 0,00 h 0 W/m 8,3 km/h (2 Bft) 96,71 %
25.10.2023 00:00 9,9 C 9,0 C 6,1 C 94 % 1003,4 hPa 0,0 l/m 0,00 h 0,00 h 0 W/m 4,0 km/h (1 Bft) 96,19 %
25.10.2023 01:00 9,3 C 8,4 C 5,9 C 94 % 1003,4 hPa 0,0 l/m 0,00 h 0,00 h 0 W/m 3,6 km/h (1 Bft) 98,52 %
25.10.2023 02:00 8,6 C 7,5 C 5,2 C 95 % 1003,3 hPa 0,0 l/m 0,00 h 0,00 h 0 W/m 1,5 km/h (1 Bft) 98,18 %
25.10.2023 03:00 8,2 C 7,2 C 5,0 C 96 % 1003,0 hPa 0,0 l/m 0,00 h 0,00 h 0 W/m 3,5 km/h (1 Bft) 96,37 %
25.10.2023 04:00 7,9 C 7,2 C 5,0 C 96 % 1002,3 hPa 0,0 l/m 0,00 h 0,00 h 0 W/m 4,7 km/h (1 Bft) 97,21 %
25.10.2023 05:00 8,1 C 7,7 C 5,0 C 97 % 1001,7 hPa 0,0 l/m 0,00 h 0,00 h 0 W/m 7,0 km/h (2 Bft) 98,37 %
25.10.2023 06:00 8,3 C 7,8 C 5,0 C 97 % 1001,2 hPa 0,0 l/m 0,00 h 0,00 h 0 W/m 8,8 km/h (2 Bft) 96,97 %
25.10.2023 07:00 8,2 C 7,8 C 5,1 C 97 % 1000,7 hPa 0,0 l/m 0,00 h 0,00 h 0 W/m 7,8 km/h (2 Bft) 97,16 %
25.10.2023 08:00 8,3 C 7,9 C 5,3 C 97 % 999,9 hPa 0,0 l/m 0,00 h 0,00 h 8 W/m 7,1 km/h (2 Bft) 98,63 %
25.10.2023 09:00 8,8 C 8,5 C 5,9 C 97 % 998,9 hPa 0,0 l/m 0,00 h 0,00 h 32 W/m 6,5 km/h (2 Bft) 97,08 %
25.10.2023 10:00 9,6 C 9,8 C 6,9 C 97 % 998,0 hPa 0,0 l/m 0,00 h 0,03 h 84 W/m 9,1 km/h (2 Bft) 97,72 %
25.10.2023 11:00 10,3 C 9,6 C 6,5 C 96 % 997,2 hPa 1,0 l/m 0,00 h 0,53 h 39 W/m 7,8 km/h (2 Bft) 96,43 %
25.10.2023 12:00 10,5 C 10,0 C 6,7 C 96 % 995,8 hPa 0,4 l/m 0,00 h 0,70 h 43 W/m 14,2 km/h (3 Bft) 98,06 %
25.10.2023 13:00 10,7 C 10,0 C 6,7 C 96 % 994,9 hPa 1,0 l/m 0,00 h 0,97 h 47 W/m 17,6 km/h (3 Bft) 96,54 %
25.10.2023 14:00 10,6 C 10,0 C 6,7 C 97 % 993,9 hPa 1,8 l/m 0,00 h 1,00 h 37 W/m 15,5 km/h (3 Bft) 97,02 %
25.10.2023 15:00 10,6 C 10,0 C 7,2 C 98 % 993,1 hPa 1,8 l/m 0,00 h 0,98 h 31 W/m 10,3 km/h (2 Bft) 97,56 %
25.10.2023 16:00 10,6 C 10,0 C 7,2 C 98 % 992,5 hPa 0,4 l/m 0,00 h 0,58 h 25 W/m 7,5 km/h (2 Bft) 95,79 %
25.10.2023 17:00 10,8 C 10,0 C 7,2 C 98 % 991,9 hPa 0,8 l/m 0,00 h 0,50 h 19 W/m 6,2 km/h (2 Bft) 98,54 %
25.10.2023 18:00 10,9 C 10,1 C 7,7 C 99 % 991,6 hPa 0,8 l/m 0,00 h 0,27 h 7 W/m 3,4 km/h (1 Bft) 95,23 %
25.10.2023 19:00 11,3 C 10,6 C 7,8 C 99 % 991,7 hPa 1,2 l/m 0,00 h 0,63 h 0 W/m 1,6 km/h (1 Bft) 96,82 %
25.10.2023 20:00 11,3 C 10,6 C 8,1 C 99 % 991,9 hPa 0,4 l/m 0,00 h 0,07 h 0 W/m 5,1 km/h (1 Bft) 98,37 %
25.10.2023 21:00 11,3 C 10,6 C 8,3 C 99 % 992,4 hPa 0,6 l/m 0,00 h 0,07 h 0 W/m 8,7 km/h (2 Bft) 98,41 %
25.10.2023 22:00 11,0 C 10,5 C 8,0 C 99 % 993,1 hPa 1,2 l/m 0,00 h 0,13 h 0 W/m 9,6 km/h (2 Bft) 95,71 %
25.10.2023 23:00 10,8 C 10,0 C 7,8 C 100 % 993,8 hPa 0,4 l/m 0,00 h 0,00 h 0 W/m 7,8 km/h (2 Bft) 99,57 %
26.10.2023 00:00 10,6 C 10,0 C 7,8 C 100 % 994,6 hPa 0,2 l/m 0,00 h 0,00 h 0 W/m 9,7 km/h (2 Bft) 91,46 %
26.10.2023 01:00 10,3 C 9,7 C 7,5 C 100 % 995,3 hPa 0,0 l/m 0,00 h 0,00 h 0 W/m 8,8 km/h (2 Bft) 97,10 %
26.10.2023 02:00 10,1 C 9,4 C 7,2 C 100 % 996,0 hPa 0,0 l/m 0,00 h 0,00 h 0 W/m 9,0 km/h (2 Bft) 98,75 %
26.10.2023 03:00 9,8 C 9,4 C 7,0 C 100 % 996,5 hPa 0,0 l/m 0,00 h 0,00 h 0 W/m 8,9 km/h (2 Bft) 95,20 %
26.10.2023 04:00 9,5 C 9,3 C 6,7 C 99 % 996,8 hPa 0,0 l/m 0,00 h 0,00 h 0 W/m 9,3 km/h (2 Bft) 97,23 %
26.10.2023 05:00 9,6 C 9,0 C 6,7 C 99 % 997,0 hPa 0,0 l/m 0,00 h 0,00 h 0 W/m 7,6 km/h (2 Bft) 97,57 %
26.10.2023 06:00 9,6 C 8,9 C 6,7 C 99 % 997,0 hPa 0,0 l/m 0,00 h 0,00 h 0 W/m 5,8 km/h (1 Bft) 97,25 %
26.10.2023 07:00 9,3 C 8,6 C 6,7 C 98 % 996,8 hPa 0,0 l/m 0,00 h 0,00 h 0 W/m 4,1 km/h (1 Bft) 94,56 %
26.10.2023 08:00 9,1 C 8,3 C 6,4 C 99 % 996,7 hPa 0,0 l/m 0,00 h 0,00 h 13 W/m 2,8 km/h (1 Bft) 98,12 %
26.10.2023 09:00 9,1 C 8,8 C 6,6 C 99 % 996,6 hPa 0,0 l/m 0,00 h 0,00 h 43 W/m 1,9 km/h (1 Bft) 97,52 %
26.10.2023 10:00 9,2 C 9,3 C 6,8 C 99 % 996,8 hPa 0,0 l/m 0,00 h 0,00 h 81 W/m 2,1 km/h (1 Bft) 97,36 %
26.10.2023 11:00 10,1 C 11,3 C 7,8 C 98 % 996,9 hPa 0,0 l/m 0,17 h 0,00 h 158 W/m 4,5 km/h (1 Bft) 96,15 %
26.10.2023 12:00 10,9 C 12,0 C 8,8 C 97 % 996,7 hPa 0,0 l/m 0,13 h 0,00 h 134 W/m 2,3 km/h (1 Bft) 96,12 %
26.10.2023 13:00 11,6 C 12,4 C 9,0 C 91 % 996,2 hPa 0,0 l/m 0,00 h 0,00 h 159 W/m 0,0 km/h (0 Bft) 94,81 %
26.10.2023 14:00 12,2 C 12,5 C 9,3 C 88 % 996,0 hPa 0,0 l/m 0,00 h 0,00 h 163 W/m 0,0 km/h (0 Bft) 96,93 %
26.10.2023 15:00 12,7 C 13,0 C 9,3 C 87 % 995,4 hPa 0,0 l/m 0,03 h 0,07 h 142 W/m 4,5 km/h (1 Bft) 94,27 %
26.10.2023 16:00 12,7 C 12,5 C 9,0 C 86 % 995,2 hPa 0,0 l/m 0,20 h 0,00 h 95 W/m 3,2 km/h (1 Bft) 99,16 %
26.10.2023 17:00 12,4 C 12,0 C 8,7 C 88 % 994,9 hPa 0,0 l/m 0,00 h 0,00 h 26 W/m 2,8 km/h (1 Bft) 96,08 %
26.10.2023 18:00 12,0 C 11,5 C 8,2 C 90 % 994,9 hPa 0,0 l/m 0,00 h 0,00 h 5 W/m 1,7 km/h (1 Bft) 97,00 %
26.10.2023 19:00 11,7 C 11,2 C 7,8 C 92 % 994,8 hPa 0,0 l/m 0,00 h 0,00 h 0 W/m 0,5 km/h (0 Bft) 97,79 %
26.10.2023 20:00 11,4 C 10,6 C 7,8 C 93 % 994,6 hPa 0,0 l/m 0,00 h 0,00 h 0 W/m 0,0 km/h (0 Bft) 97,58 %
26.10.2023 21:00 11,2 C 10,6 C 7,8 C 95 % 994,6 hPa 0,0 l/m 0,00 h 0,00 h 0 W/m 1,4 km/h (1 Bft) 96,00 %
26.10.2023 22:00 11,1 C 10,6 C 7,8 C 96 % 994,5 hPa 0,0 l/m 0,00 h 0,00 h 0 W/m 1,0 km/h (0 Bft) 96,05 %
26.10.2023 23:00 10,8 C 10,0 C 7,3 C 97 % 994,0 hPa 0,0 l/m 0,00 h 0,00 h 0 W/m 1,4 km/h (1 Bft) 97,77 %
27.10.2023 00:00 10,6 C 10,0 C 7,4 C 97 % 993,6 hPa 0,0 l/m 0,00 h 0,00 h 0 W/m 1,1 km/h (1 Bft) 96,98 %
27.10.2023 01:00 10,7 C 10,0 C 7,8 C 98 % 993,1 hPa 0,0 l/m 0,00 h 0,00 h 0 W/m 1,6 km/h (1 Bft) 96,18 %
27.10.2023 02:00 10,7 C 10,0 C 7,7 C 98 % 992,9 hPa 0,0 l/m 0,00 h 0,00 h 0 W/m 2,0 km/h (1 Bft) 98,65 %
27.10.2023 03:00 10,4 C 10,0 C 7,2 C 98 % 992,7 hPa 0,0 l/m 0,00 h 0,00 h 0 W/m 0,4 km/h (0 Bft) 97,08 %
27.10.2023 04:00 10,1 C 9,4 C 7,0 C 98 % 992,3 hPa 0,2 l/m 0,00 h 0,63 h 0 W/m 0,0 km/h (0 Bft) 96,73 %
27.10.2023 05:00 9,9 C 9,4 C 6,7 C 98 % 991,8 hPa 0,2 l/m 0,00 h 0,90 h 0 W/m 0,0 km/h (0 Bft) 99,50 %
27.10.2023 06:00 9,8 C 9,3 C 6,7 C 98 % 991,5 hPa 0,2 l/m 0,00 h 0,47 h 0 W/m 0,0 km/h (0 Bft) 95,08 %
27.10.2023 07:00 9,8 C 9,4 C 6,7 C 98 % 991,4 hPa 0,6 l/m 0,00 h 0,73 h 0 W/m 0,0 km/h (0 Bft) 96,33 %
27.10.2023 08:00 10,0 C 9,4 C 6,8 C 98 % 991,4 hPa 1,2 l/m 0,00 h 1,02 h 8 W/m 0,2 km/h (0 Bft) 97,69 %
27.10.2023 09:00 10,2 C 9,4 C 7,2 C 99 % 991,4 hPa 1,0 l/m 0,00 h 0,77 h 14 W/m 6,3 km/h (2 Bft) 93,41 %
27.10.2023 10:00 10,6 C 10,1 C 7,6 C 99 % 991,8 hPa 0,8 l/m 0,00 h 0,85 h 34 W/m 8,8 km/h (2 Bft) 96,92 %
27.10.2023 11:00 11,0 C 10,7 C 7,9 C 99 % 992,2 hPa 0,4 l/m 0,00 h 0,47 h 61 W/m 4,4 km/h (1 Bft) 97,70 %
27.10.2023 12:00 11,4 C 11,5 C 8,4 C 99 % 992,6 hPa 0,2 l/m 0,00 h 0,33 h 96 W/m 9,0 km/h (2 Bft) 95,94 %
27.10.2023 13:00 11,6 C 11,5 C 8,6 C 99 % 992,8 hPa 0,2 l/m 0,00 h 0,23 h 101 W/m 5,4 km/h (1 Bft) 98,53 %
27.10.2023 14:00 12,2 C 12,2 C 8,9 C 99 % 992,8 hPa 0,4 l/m 0,00 h 0,47 h 92 W/m 8,3 km/h (2 Bft) 97,23 %
27.10.2023 15:00 12,3 C 12,2 C 8,9 C 98 % 993,1 hPa 0,0 l/m 0,00 h 0,40 h 88 W/m 14,2 km/h (3 Bft) 96,57 %
27.10.2023 16:00 12,0 C 11,7 C 8,4 C 96 % 993,4 hPa 0,2 l/m 0,00 h 0,90 h 47 W/m 11,1 km/h (2 Bft) 97,04 %
27.10.2023 17:00 12,1 C 11,7 C 8,6 C 96 % 993,8 hPa 0,0 l/m 0,27 h 0,07 h 43 W/m 8,8 km/h (2 Bft) 95,75 %
27.10.2023 18:00 11,6 C 10,8 C 7,7 C 94 % 994,2 hPa 0,0 l/m 0,00 h 0,00 h 9 W/m 5,2 km/h (1 Bft) 96,11 %
27.10.2023 19:00 10,8 C 9,5 C 6,8 C 94 % 994,6 hPa 0,0 l/m 0,00 h 0,00 h 0 W/m 1,0 km/h (0 Bft) 95,47 %
27.10.2023 20:00 10,2 C 9,2 C 6,7 C 95 % 994,9 hPa 0,0 l/m 0,00 h 0,00 h 0 W/m 2,5 km/h (1 Bft) 99,15 %
27.10.2023 21:00 10,0 C 9,3 C 6,7 C 96 % 995,1 hPa 0,0 l/m 0,00 h 0,00 h 0 W/m 8,6 km/h (2 Bft) 97,22 %
27.10.2023 22:00 9,6 C 8,5 C 6,2 C 97 % 995,6 hPa 0,0 l/m 0,00 h 0,00 h 0 W/m 0,6 km/h (0 Bft) 96,28 %
27.10.2023 23:00 9,1 C 8,3 C 5,9 C 97 % 995,8 hPa 0,0 l/m 0,00 h 0,00 h 0 W/m 1,7 km/h (1 Bft) 98,79 %
28.10.2023 00:00 8,8 C 8,3 C 5,8 C 97 % 995,9 hPa 0,0 l/m 0,00 h 0,00 h 0 W/m 2,6 km/h (1 Bft) 97,15 %
28.10.2023 01:00 8,8 C 8,3 C 6,1 C 97 % 996,3 hPa 0,0 l/m 0,00 h 0,00 h 0 W/m 0,9 km/h (0 Bft) 97,65 %
28.10.2023 02:00 8,9 C 8,3 C 6,1 C 98 % 996,3 hPa 0,0 l/m 0,00 h 0,00 h 0 W/m 0,0 km/h (0 Bft) 96,87 %
28.10.2023 03:00 9,1 C 8,8 C 6,6 C 98 % 996,4 hPa 0,0 l/m 0,00 h 0,00 h 0 W/m 0,0 km/h (0 Bft) 97,68 %
28.10.2023 04:00 9,3 C 8,7 C 6,7 C 98 % 996,5 hPa 0,0 l/m 0,00 h 0,00 h 0 W/m 0,0 km/h (0 Bft) 96,45 %
28.10.2023 05:00 9,4 C 8,9 C 6,7 C 98 % 996,5 hPa 0,2 l/m 0,00 h 0,10 h 0 W/m 5,4 km/h (1 Bft) 97,58 %
28.10.2023 06:00 9,3 C 8,9 C 6,7 C 98 % 996,4 hPa 0,0 l/m 0,00 h 0,00 h 0 W/m 3,9 km/h (1 Bft) 98,42 %
28.10.2023 07:00 9,2 C 8,9 C 6,7 C 98 % 996,3 hPa 0,0 l/m 0,00 h 0,00 h 0 W/m 3,9 km/h (1 Bft) 97,28 %
28.10.2023 08:00 9,4 C 9,0 C 6,8 C 98 % 996,5 hPa 0,0 l/m 0,00 h 0,00 h 14 W/m 5,0 km/h (1 Bft) 97,43 %
28.10.2023 09:00 9,8 C 9,7 C 7,2 C 97 % 996,8 hPa 0,0 l/m 0,00 h 0,00 h 34 W/m 9,4 km/h (2 Bft) 97,33 %
28.10.2023 10:00 10,2 C 10,2 C 7,6 C 97 % 997,3 hPa 0,0 l/m 0,00 h 0,07 h 51 W/m 7,4 km/h (2 Bft) 95,00 %
28.10.2023 11:00 10,9 C 11,2 C 8,5 C 97 % 997,9 hPa 0,0 l/m 0,00 h 0,00 h 81 W/m 9,5 km/h (2 Bft) 82,04 %
28.10.2023 12:00 12,4 C 13,2 C 9,8 C 94 % 997,8 hPa 0,0 l/m 0,00 h 0,00 h 134 W/m 10,8 km/h (2 Bft) 93,54 %
28.10.2023 13:00 14,1 C 14,4 C 10,9 C 81 % 997,5 hPa 0,0 l/m 0,30 h 0,00 h 186 W/m 25,4 km/h (4 Bft) 92,91 %
28.10.2023 14:00 14,3 C 14,1 C 10,6 C 79 % 997,7 hPa 0,0 l/m 0,10 h 0,00 h 139 W/m 22,7 km/h (4 Bft) 88,61 %
28.10.2023 15:00 14,0 C 13,1 C 8,9 C 83 % 997,9 hPa 0,2 l/m 0,33 h 0,30 h 120 W/m 20,7 km/h (4 Bft) 96,85 %
28.10.2023 16:00 13,3 C 12,9 C 8,3 C 88 % 997,9 hPa 0,0 l/m 0,00 h 0,00 h 55 W/m 12,4 km/h (3 Bft) 97,11 %
28.10.2023 17:00 13,2 C 12,6 C 8,9 C 86 % 997,9 hPa 0,0 l/m 0,00 h 0,00 h 34 W/m 13,2 km/h (3 Bft) 97,62 %
28.10.2023 18:00 12,7 C 12,0 C 8,6 C 88 % 997,8 hPa 0,0 l/m 0,00 h 0,00 h 6 W/m 7,9 km/h (2 Bft) 97,61 %
28.10.2023 19:00 12,5 C 11,5 C 8,2 C 90 % 997,9 hPa 0,0 l/m 0,00 h 0,00 h 0 W/m 4,6 km/h (1 Bft) 96,70 %
28.10.2023 20:00 11,7 C 11,1 C 7,9 C 92 % 997,8 hPa 0,0 l/m 0,00 h 0,00 h 0 W/m 7,1 km/h (2 Bft) 97,37 %
28.10.2023 21:00 11,7 C 11,0 C 7,5 C 93 % 997,3 hPa 1,0 l/m 0,00 h 0,85 h 0 W/m 9,8 km/h (2 Bft) 97,99 %
28.10.2023 22:00 11,6 C 10,6 C 7,3 C 96 % 996,8 hPa 2,0 l/m 0,00 h 0,98 h 0 W/m 12,9 km/h (3 Bft) 97,65 %
28.10.2023 23:00 11,5 C 10,6 C 7,8 C 97 % 996,0 hPa 1,0 l/m 0,00 h 0,83 h 0 W/m 14,3 km/h (3 Bft) 95,74 %
29.10.2023 00:00 11,6 C 11,0 C 7,8 C 98 % 995,0 hPa 0,0 l/m 0,00 h 0,13 h 0 W/m 15,1 km/h (3 Bft) 98,93 %
29.10.2023 01:00 11,8 C 11,4 C 7,9 C 98 % 994,3 hPa 0,0 l/m 0,00 h 0,00 h 0 W/m 16,9 km/h (3 Bft) 96,27 %
29.10.2023 02:00 12,6 C 12,2 C 8,6 C 96 % 993,8 hPa 0,4 l/m 0,00 h 0,47 h 0 W/m 13,3 km/h (3 Bft) 95,88 %
29.10.2023 03:00 12,9 C 12,2 C 8,9 C 94 % 992,8 hPa 0,0 l/m 0,00 h 0,27 h 0 W/m 11,8 km/h (2 Bft) 95,95 %
29.10.2023 04:00 13,1 C 12,7 C 8,6 C 93 % 992,5 hPa 0,0 l/m 0,00 h 0,00 h 0 W/m 13,1 km/h (3 Bft) 96,69 %
29.10.2023 05:00 13,8 C 13,2 C 8,9 C 90 % 992,6 hPa 0,0 l/m 0,00 h 0,00 h 0 W/m 21,1 km/h (4 Bft) 97,23 %
29.10.2023 06:00 14,1 C 13,3 C 8,9 C 87 % 993,0 hPa 0,0 l/m 0,00 h 0,00 h 0 W/m 17,4 km/h (3 Bft) 98,44 %
29.10.2023 07:00 14,1 C 13,3 C 9,8 C 86 % 993,7 hPa 0,0 l/m 0,00 h 0,00 h 6 W/m 27,5 km/h (4 Bft) 96,46 %
29.10.2023 08:00 13,6 C 12,7 C 9,3 C 86 % 994,4 hPa 0,0 l/m 0,00 h 0,00 h 14 W/m 17,2 km/h (3 Bft) 97,54 %
29.10.2023 09:00 13,3 C 12,8 C 9,4 C 87 % 995,3 hPa 0,0 l/m 0,00 h 0,00 h 45 W/m 17,5 km/h (3 Bft) 97,29 %
29.10.2023 10:00 13,9 C 13,6 C 10,0 C 84 % 995,9 hPa 0,0 l/m 0,00 h 0,00 h 107 W/m 23,4 km/h (4 Bft) 98,24 %
29.10.2023 11:00 14,9 C 14,5 C 10,7 C 80 % 995,8 hPa 0,0 l/m 0,00 h 0,00 h 117 W/m 27,5 km/h (4 Bft) 96,27 %
29.10.2023 12:00 15,7 C 15,5 C 11,2 C 77 % 995,8 hPa 0,0 l/m 0,33 h 0,17 h 167 W/m 27,0 km/h (4 Bft) 97,62 %
29.10.2023 13:00 14,6 C 14,2 C 10,2 C 84 % 995,4 hPa 0,0 l/m 0,15 h 0,00 h 139 W/m 22,0 km/h (4 Bft) 96,89 %
29.10.2023 14:00 14,3 C 14,2 C 10,5 C 87 % 994,7 hPa 0,0 l/m 0,17 h 0,00 h 152 W/m 21,4 km/h (4 Bft) 99,64 %
29.10.2023 15:00 14,5 C 14,2 C 10,4 C 87 % 994,2 hPa 0,0 l/m 0,17 h 0,00 h 72 W/m 25,3 km/h (4 Bft) 96,76 %
29.10.2023 16:00 14,9 C 14,1 C 10,5 C 82 % 994,5 hPa 0,0 l/m 0,08 h 0,00 h 24 W/m 31,9 km/h (5 Bft) 98,63 %
29.10.2023 17:00 14,3 C 13,4 C 9,6 C 82 % 994,9 hPa 0,0 l/m 0,00 h 0,00 h 6 W/m 27,3 km/h (4 Bft) 96,31 %
29.10.2023 18:00 13,8 C 12,9 C 9,1 C 82 % 995,7 hPa 0,0 l/m 0,00 h 0,00 h 0 W/m 24,9 km/h (4 Bft) 98,30 %
29.10.2023 19:00 13,8 C 13,0 C 9,3 C 80 % 996,5 hPa 0,0 l/m 0,00 h 0,00 h 0 W/m 30,2 km/h (5 Bft) 96,03 %
29.10.2023 20:00 13,9 C 12,9 C 9,2 C 81 % 997,4 hPa 0,0 l/m 0,00 h 0,00 h 0 W/m 28,8 km/h (5 Bft) 97,65 %
29.10.2023 21:00 13,3 C 12,4 C 8,8 C 84 % 998,4 hPa 0,0 l/m 0,00 h 0,00 h 0 W/m 22,6 km/h (4 Bft) 96,84 %
29.10.2023 22:00 12,8 C 11,9 C 8,3 C 86 % 999,1 hPa 0,0 l/m 0,00 h 0,00 h 0 W/m 18,6 km/h (3 Bft) 95,78 %
29.10.2023 23:00 12,7 C 11,9 C 8,3 C 86 % 999,7 hPa 0,0 l/m 0,00 h 0,00 h 0 W/m 21,3 km/h (4 Bft) 97,66 %
Min-Datum _ 23.10.23 23.10.23 23.10.23 29.10.23 27.10.23 - - - - 23.10.23 26.10.23
_ Min-Zeit 08:18 08:14 04:34 12:40 08:40 - - - - 00:00 00:02
Minimum _ 7,9 C 6,7 C 4,4 C 74 % 991,3 hPa - - - - 0,0 km/h (0 Bft) 10,00 %
Max-Datum _ 29.10.23 29.10.23 29.10.23 25.10.23 23.10.23 28.10.23 29.10.23 25.10.23 23.10.23 29.10.23 23.10.23
_ Max-Zeit 12:32 12:16 12:16 22:38 09:08 22:00 13:10 15:54 15:46 08:00 00:00
Maximum _ 16,0 C 16,1 C 11,7 C 100 % 1014,4 hPa 2,0 l/m 0,08 h 0,08 h 356 W/m 57,9 km/h
S-SW (7 Bft)
100,00 %
Durchschnitt _ 11,1 C 10,6 C 7,6 C 94 % 998,4 hPa #26,8 l/m #3:14 h #21:30 h 74 W/m 8,1 km/h (2 Bft) 96,86 %
© 2023 W. Hausmann